createdAt,value
2018-07-08T00:01:28.092Z,8.87
2018-07-08T00:03:56.950Z,9.63
2018-07-08T00:06:25.444Z,8.17
2018-07-08T00:08:53.997Z,8.63
2018-07-08T00:11:23.147Z,4.93
2018-07-08T00:13:52.363Z,8.90
2018-07-08T00:16:20.850Z,6.97
2018-07-08T00:18:49.319Z,10.30
2018-07-08T00:21:17.795Z,8.53
2018-07-08T00:23:46.248Z,7.00
2018-07-08T00:26:15.108Z,7.23
2018-07-08T00:28:43.947Z,6.00
2018-07-08T00:31:12.464Z,12.20
2018-07-08T00:33:40.964Z,5.27
2018-07-08T00:36:09.479Z,6.57
2018-07-08T00:38:37.943Z,7.80
2018-07-08T00:41:06.887Z,5.90
2018-07-08T00:43:35.423Z,8.13
2018-07-08T00:46:03.940Z,11.03
2018-07-08T00:48:32.396Z,13.73
2018-07-08T00:51:01.227Z,8.73
2018-07-08T00:53:29.809Z,10.07
2018-07-08T00:55:58.314Z,5.63
2018-07-08T00:58:26.808Z,14.10
2018-07-08T01:00:56.012Z,5.60
2018-07-08T01:03:24.461Z,4.57
2018-07-08T01:05:52.933Z,11.57
2018-07-08T01:08:21.415Z,6.70
2018-07-08T01:10:50.262Z,6.43
2018-07-08T01:13:18.735Z,7.70
2018-07-08T01:15:47.214Z,7.80
2018-07-08T01:18:15.703Z,10.80
2018-07-08T01:20:44.199Z,7.93
2018-07-08T01:23:12.679Z,9.53
2018-07-08T01:25:52.315Z,9.60
2018-07-08T01:28:20.766Z,10.83
2018-07-08T01:30:49.553Z,7.83
2018-07-08T01:33:18.375Z,10.97
2018-07-08T01:35:46.846Z,7.13
2018-07-08T01:38:15.532Z,7.37
2018-07-08T01:40:44.014Z,8.13
2018-07-08T01:43:12.496Z,8.43
2018-07-08T01:45:40.968Z,10.30
2018-07-08T01:48:09.443Z,8.40
2018-07-08T01:50:37.908Z,7.27
2018-07-08T01:53:06.427Z,9.40
2018-07-08T01:55:35.295Z,10.90
2018-07-08T01:58:03.807Z,13.40
2018-07-08T02:00:33.303Z,8.10
2018-07-08T02:03:01.832Z,9.37
2018-07-08T02:05:30.347Z,7.30
2018-07-08T02:07:59.120Z,7.53
2018-07-08T02:10:27.739Z,6.63
2018-07-08T02:12:56.199Z,11.13
2018-07-08T02:15:24.656Z,12.13
2018-07-08T02:17:53.280Z,9.40
2018-07-08T02:20:21.772Z,9.73
2018-07-08T02:22:50.292Z,6.87
2018-07-08T02:25:19.488Z,7.03
2018-07-08T02:27:47.998Z,9.23
2018-07-08T02:30:16.512Z,7.90
2018-07-08T02:32:45.007Z,10.27
2018-07-08T02:35:13.456Z,10.63
2018-07-08T02:37:42.335Z,10.53
2018-07-08T02:40:10.920Z,7.37
2018-07-08T02:42:39.781Z,10.37
2018-07-08T02:45:08.211Z,8.90
2018-07-08T02:47:37.064Z,10.33
2018-07-08T02:50:05.556Z,11.03
2018-07-08T02:52:34.033Z,8.97
2018-07-08T02:55:03.245Z,6.70
2018-07-08T02:57:31.804Z,11.27
2018-07-08T03:00:00.277Z,8.93
2018-07-08T03:02:28.740Z,8.27
2018-07-08T03:04:57.243Z,11.77
2018-07-08T03:07:25.727Z,12.27
2018-07-08T03:09:54.191Z,13.07
2018-07-08T03:12:22.831Z,9.73
2018-07-08T03:14:51.276Z,13.27
2018-07-08T03:17:19.736Z,10.13
2018-07-08T03:19:48.239Z,11.13
2018-07-08T03:22:16.726Z,15.67
2018-07-08T03:24:45.185Z,7.03
2018-07-08T03:27:13.640Z,10.30
2018-07-08T03:29:42.127Z,10.33
2018-07-08T03:32:10.600Z,9.47
2018-07-08T03:34:39.132Z,12.93
2018-07-08T03:37:07.591Z,13.73
2018-07-08T03:39:36.047Z,11.03
2018-07-08T03:42:04.512Z,10.40
2018-07-08T03:44:32.984Z,13.97
2018-07-08T03:47:01.443Z,9.57
2018-07-08T03:49:29.907Z,8.17
2018-07-08T03:51:58.367Z,9.67
2018-07-08T03:54:31.239Z,11.00
2018-07-08T03:56:59.712Z,14.47
2018-07-08T03:59:28.178Z,24.27
2018-07-08T04:01:56.663Z,10.30
2018-07-08T04:04:25.162Z,12.57
2018-07-08T04:06:53.823Z,11.47
2018-07-08T04:09:22.330Z,13.63
2018-07-08T04:11:50.834Z,14.27
2018-07-08T04:14:19.307Z,15.37
2018-07-08T04:16:47.969Z,11.73
2018-07-08T04:19:16.818Z,11.47
2018-07-08T04:21:45.267Z,10.63
2018-07-08T04:24:13.941Z,12.53
2018-07-08T04:26:42.448Z,12.33
2018-07-08T04:29:10.898Z,13.83
2018-07-08T04:31:39.364Z,15.57
2018-07-08T04:34:07.920Z,15.50
2018-07-08T04:36:36.839Z,16.03
2018-07-08T04:39:06.752Z,12.17
2018-07-08T04:41:35.231Z,13.77
2018-07-08T04:44:03.923Z,16.70
2018-07-08T04:46:32.523Z,14.63
2018-07-08T04:49:01.359Z,14.10
2018-07-08T04:51:29.852Z,12.97
2018-07-08T04:56:57.519Z,15.53
2018-07-08T04:59:26.484Z,13.43
2018-07-08T05:01:55.008Z,14.10
2018-07-08T05:04:23.457Z,16.43
2018-07-08T05:06:51.930Z,12.63
2018-07-08T05:09:20.380Z,10.30
2018-07-08T05:11:48.855Z,13.20
2018-07-08T05:14:17.343Z,16.37
2018-07-08T05:16:45.899Z,12.33
2018-07-08T05:19:14.351Z,11.93
2018-07-08T05:21:42.826Z,14.90
2018-07-08T05:24:11.300Z,11.30
2018-07-08T05:26:39.780Z,11.53
2018-07-08T05:29:08.247Z,12.37
2018-07-08T05:31:36.720Z,15.17
2018-07-08T05:34:05.444Z,13.97
2018-07-08T05:36:34.262Z,12.07
2018-07-08T05:39:02.769Z,9.73
2018-07-08T05:41:31.251Z,12.30
2018-07-08T05:43:59.746Z,12.27
2018-07-08T05:46:28.212Z,9.57
2018-07-08T05:48:56.671Z,15.07
2018-07-08T05:51:25.172Z,16.07
2018-07-08T05:53:53.660Z,18.10
2018-07-08T05:56:22.164Z,10.67
2018-07-08T05:58:50.681Z,18.90
2018-07-08T06:01:19.580Z,12.13
2018-07-08T06:03:48.013Z,10.83
2018-07-08T06:06:16.526Z,12.63
2018-07-08T06:08:45.016Z,11.50
2018-07-08T06:11:13.460Z,12.73
2018-07-08T06:13:41.919Z,11.27
2018-07-08T06:16:10.804Z,11.67
2018-07-08T06:18:39.664Z,10.77
2018-07-08T06:21:08.144Z,9.10
2018-07-08T06:23:36.624Z,8.17
2018-07-08T06:26:05.641Z,10.00
2018-07-08T06:28:34.287Z,12.47
2018-07-08T06:31:02.788Z,9.67
2018-07-08T06:33:31.310Z,8.10
2018-07-08T06:35:59.900Z,10.27
2018-07-08T06:38:28.392Z,9.53
2018-07-08T06:40:56.933Z,6.00
2018-07-08T06:43:25.411Z,6.23
2018-07-08T06:45:53.872Z,6.67
2018-07-08T06:48:22.723Z,7.53
2018-07-08T06:50:51.220Z,6.33
2018-07-08T06:53:20.082Z,7.10
2018-07-08T06:55:48.525Z,8.50
2018-07-08T06:58:17.363Z,9.00
2018-07-08T07:00:46.162Z,5.93
2018-07-08T07:03:14.687Z,10.00
2018-07-08T07:05:43.111Z,7.87
2018-07-08T07:08:11.627Z,6.90
2018-07-08T07:10:40.083Z,8.63
2018-07-08T07:13:08.559Z,6.07
2018-07-08T07:15:37.402Z,5.20
2018-07-08T07:18:05.838Z,8.63
2018-07-08T07:20:34.336Z,7.20
2018-07-08T07:23:03.180Z,4.87
2018-07-08T07:25:31.814Z,6.47
2018-07-08T07:28:00.276Z,9.43
2018-07-08T07:30:29.172Z,6.13
2018-07-08T07:32:57.641Z,9.10
2018-07-08T07:35:26.173Z,7.17
2018-07-08T07:37:55.159Z,7.62
2018-07-08T07:40:24.000Z,4.60
2018-07-08T07:42:52.463Z,5.37
2018-07-08T07:45:20.975Z,6.60
2018-07-08T07:47:49.621Z,4.60
2018-07-08T07:50:18.081Z,4.40
2018-07-08T07:52:46.554Z,4.40
2018-07-08T07:55:15.055Z,7.00
2018-07-08T07:57:43.535Z,8.00
2018-07-08T08:00:12.302Z,5.20
2018-07-08T08:02:40.780Z,5.90
2018-07-08T08:05:09.364Z,5.97
2018-07-08T08:07:38.003Z,4.80
2018-07-08T08:10:07.499Z,4.63
2018-07-08T08:12:36.492Z,4.22
2018-07-08T08:15:05.583Z,2.67
2018-07-08T08:17:34.635Z,4.42
2018-07-08T08:20:03.741Z,4.87
2018-07-08T08:22:33.138Z,5.65
2018-07-08T08:25:02.536Z,3.98
2018-07-08T08:27:31.546Z,3.42
2018-07-08T08:30:00.601Z,3.52
2018-07-08T08:32:29.581Z,2.80
2018-07-08T08:35:02.775Z,5.08
2018-07-08T08:37:33.907Z,5.03
2018-07-08T08:40:03.203Z,3.92
2018-07-08T08:42:32.222Z,3.15
2018-07-08T08:45:01.742Z,5.05
2018-07-08T08:47:31.425Z,4.17
2018-07-08T08:50:00.452Z,3.35
2018-07-08T08:52:29.493Z,3.30
2018-07-08T08:54:58.672Z,4.83
2018-07-08T08:57:28.038Z,2.60
2018-07-08T08:59:57.296Z,2.30
2018-07-08T09:02:26.369Z,2.90
2018-07-08T09:04:55.754Z,4.28
2018-07-08T09:07:24.800Z,3.08
2018-07-08T09:09:53.788Z,6.40
2018-07-08T09:12:23.165Z,2.85
2018-07-08T09:14:52.171Z,2.77
2018-07-08T09:17:21.245Z,4.62
2018-07-08T09:19:49.857Z,3.73
2018-07-08T09:22:18.359Z,4.17
2018-07-08T09:24:46.819Z,5.70
2018-07-08T09:27:15.692Z,3.23
2018-07-08T09:29:44.222Z,3.27
2018-07-08T09:32:12.817Z,2.00
2018-07-08T09:34:41.653Z,1.77
2018-07-08T09:37:10.163Z,4.93
2018-07-08T09:39:38.679Z,4.97
2018-07-08T09:42:07.179Z,2.00
2018-07-08T09:44:35.627Z,5.07
2018-07-08T09:47:04.104Z,4.40
2018-07-08T09:49:32.584Z,1.73
2018-07-08T09:52:01.434Z,2.87
2018-07-08T09:54:29.921Z,2.10
2018-07-08T09:56:58.420Z,3.40
2018-07-08T09:59:26.896Z,1.53
2018-07-08T10:01:55.379Z,4.87
2018-07-08T10:04:24.863Z,4.03
2018-07-08T10:06:54.242Z,7.60
2018-07-08T10:09:23.826Z,2.77
2018-07-08T10:11:52.589Z,3.83
2018-07-08T10:14:22.235Z,3.93
2018-07-08T10:16:51.091Z,3.10
2018-07-08T10:19:20.352Z,2.43
2018-07-08T10:21:49.112Z,1.97
2018-07-08T10:24:17.956Z,2.97
2018-07-08T10:27:09.139Z,5.10
2018-07-08T10:29:37.605Z,1.67
2018-07-08T10:32:06.074Z,4.93
2018-07-08T10:34:34.907Z,5.90
2018-07-08T10:37:04.061Z,3.53
2018-07-08T10:39:32.528Z,3.47
2018-07-08T10:42:00.973Z,4.20
2018-07-08T10:44:29.423Z,1.87
2018-07-08T10:46:57.916Z,3.13
2018-07-08T10:49:26.376Z,2.50
2018-07-08T10:51:55.359Z,4.33
2018-07-08T10:54:24.375Z,2.60
2018-07-08T10:56:52.858Z,2.37
2018-07-08T10:59:21.705Z,2.33
2018-07-08T11:01:50.895Z,2.87
2018-07-08T11:04:19.384Z,4.10
2018-07-08T11:06:47.830Z,2.50
2018-07-08T11:09:16.689Z,1.40
2018-07-08T11:11:45.142Z,2.53
2018-07-08T11:14:13.631Z,2.60
2018-07-08T11:16:42.457Z,5.13
2018-07-08T11:19:10.955Z,3.00
2018-07-08T11:21:39.445Z,2.07
2018-07-08T11:24:07.950Z,3.83
2018-07-08T11:26:36.515Z,3.43
2018-07-08T11:30:34.223Z,2.23
2018-07-08T11:33:02.728Z,3.70
2018-07-08T11:35:31.216Z,3.17
2018-07-08T11:37:59.723Z,5.97
2018-07-08T11:40:28.220Z,3.63
2018-07-08T11:42:57.143Z,3.73
2018-07-08T11:45:25.738Z,1.90
2018-07-08T11:47:54.215Z,2.03
2018-07-08T11:50:22.727Z,3.07
2018-07-08T11:52:51.189Z,1.87
2018-07-08T11:55:19.737Z,3.60
2018-07-08T11:57:49.112Z,3.00
2018-07-08T12:00:17.636Z,4.00
2018-07-08T12:02:46.464Z,2.70
2018-07-08T12:05:14.998Z,4.13
2018-07-08T12:07:43.831Z,2.80
2018-07-08T12:10:12.340Z,4.07
2018-07-08T12:12:40.787Z,4.43
2018-07-08T12:15:09.272Z,4.87
2018-07-08T12:17:37.872Z,1.43
2018-07-08T12:20:06.401Z,2.77
2018-07-08T12:22:34.896Z,3.10
2018-07-08T12:25:03.728Z,3.10
2018-07-08T12:27:32.591Z,3.90
2018-07-08T12:30:01.571Z,4.10
2018-07-08T12:32:30.069Z,2.90
2018-07-08T12:34:58.746Z,0.93
2018-07-08T12:37:27.243Z,2.17
2018-07-08T12:39:55.752Z,4.83
2018-07-08T12:42:24.254Z,3.30
2018-07-08T12:44:52.791Z,2.80
2018-07-08T12:47:21.375Z,3.70
2018-07-08T12:49:49.871Z,2.87
2018-07-08T12:52:18.717Z,3.50
2018-07-08T12:54:47.467Z,4.40
2018-07-08T12:57:15.940Z,4.43
2018-07-08T12:59:44.408Z,2.57
2018-07-08T13:02:12.875Z,2.63
2018-07-08T13:04:41.374Z,4.63
2018-07-08T13:07:09.859Z,2.63
2018-07-08T13:09:38.353Z,5.33
2018-07-08T13:12:06.929Z,1.83
2018-07-08T13:14:35.438Z,2.63
2018-07-08T13:17:03.926Z,2.27
2018-07-08T13:19:32.670Z,5.57
2018-07-08T13:22:01.256Z,5.07
2018-07-08T13:24:30.388Z,3.63
2018-07-08T13:26:58.919Z,5.07
2018-07-08T13:29:27.400Z,3.27
2018-07-08T13:31:55.895Z,3.60
2018-07-08T13:34:24.642Z,4.20
2018-07-08T13:36:53.402Z,3.53
2018-07-08T13:39:22.214Z,4.60
2018-07-08T13:41:50.739Z,2.93
2018-07-08T13:44:19.236Z,4.27
2018-07-08T13:46:47.741Z,3.63
2018-07-08T13:49:16.207Z,3.20
2018-07-08T13:51:44.686Z,3.13
2018-07-08T13:54:13.509Z,3.73
2018-07-08T13:56:42.020Z,2.83
2018-07-08T13:59:10.492Z,2.77
2018-07-08T14:01:38.962Z,4.83
2018-07-08T14:04:07.453Z,3.27
2018-07-08T14:06:36.265Z,3.23
2018-07-08T14:09:05.942Z,3.70
2018-07-08T14:11:34.808Z,2.93
2018-07-08T14:14:03.304Z,4.43
2018-07-08T14:16:31.924Z,5.67
2018-07-08T14:19:02.410Z,5.70
2018-07-08T14:21:30.929Z,4.37
2018-07-08T14:23:59.404Z,2.17
2018-07-08T14:26:27.891Z,4.70
2018-07-08T14:28:56.407Z,2.80
2018-07-08T14:31:24.850Z,3.70
2018-07-08T14:33:53.334Z,3.20
2018-07-08T14:36:21.848Z,3.33
2018-07-08T14:38:50.689Z,4.93
2018-07-08T14:41:19.155Z,2.33
2018-07-08T14:43:47.647Z,2.27
2018-07-08T14:46:16.140Z,3.03
2018-07-08T14:48:44.483Z,4.43
2018-07-08T14:51:12.943Z,5.77
2018-07-08T14:53:41.452Z,2.43
2018-07-08T14:56:09.907Z,4.77
2018-07-08T14:58:38.435Z,2.10
2018-07-08T15:01:06.983Z,8.80
2018-07-08T15:03:35.533Z,3.17
2018-07-08T15:06:04.031Z,5.83
2018-07-08T15:08:32.755Z,2.97
2018-07-08T15:11:01.225Z,4.23
2018-07-08T15:13:29.835Z,4.87
2018-07-08T15:15:58.426Z,2.53
2018-07-08T15:18:27.059Z,4.17
2018-07-08T15:20:55.561Z,2.37
2018-07-08T15:23:24.188Z,4.00
2018-07-08T15:25:52.627Z,3.70
2018-07-08T15:28:21.478Z,2.20
2018-07-08T15:30:50.401Z,3.07
2018-07-08T15:33:18.914Z,3.70
2018-07-08T15:35:47.395Z,2.57
2018-07-08T15:38:16.275Z,3.03
2018-07-08T15:40:44.737Z,4.67
2018-07-08T15:43:13.249Z,2.53
2018-07-08T15:45:41.759Z,3.63
2018-07-08T15:48:10.220Z,2.37
2018-07-08T15:50:38.759Z,4.63
2018-07-08T15:53:07.567Z,3.70
2018-07-08T15:55:36.076Z,3.47
2018-07-08T15:58:04.531Z,3.23
2018-07-08T16:00:33.278Z,3.40
2018-07-08T16:03:01.742Z,2.33
2018-07-08T16:05:30.575Z,3.23
2018-07-08T16:07:59.568Z,5.57
2018-07-08T16:10:28.058Z,4.77
2018-07-08T16:12:56.525Z,5.40
2018-07-08T16:15:24.995Z,7.50
2018-07-08T16:17:53.494Z,3.43
2018-07-08T16:20:22.018Z,3.13
2018-07-08T16:22:50.844Z,8.03
2018-07-08T16:25:19.314Z,4.10
2018-07-08T16:27:47.820Z,3.33
2018-07-08T16:30:16.398Z,2.43
2018-07-08T16:32:44.832Z,3.37
2018-07-08T16:35:13.647Z,4.83
2018-07-08T16:37:42.474Z,6.23
2018-07-08T16:40:13.527Z,5.77
2018-07-08T16:42:42.458Z,2.90
2018-07-08T16:45:10.976Z,3.07
2018-07-08T16:47:39.795Z,7.13
2018-07-08T16:50:08.304Z,2.73
2018-07-08T16:52:36.756Z,3.63
2018-07-08T16:55:05.726Z,2.33
2018-07-08T16:57:34.509Z,4.07
2018-07-08T17:00:03.028Z,6.10
2018-07-08T17:02:31.553Z,3.73
2018-07-08T17:05:00.194Z,3.53
2018-07-08T17:07:28.683Z,6.17
2018-07-08T17:09:57.164Z,3.27
2018-07-08T17:12:25.707Z,4.07
2018-07-08T17:14:54.225Z,4.67
2018-07-08T17:17:22.799Z,2.33
2018-07-08T17:19:51.308Z,5.10
2018-07-08T17:22:19.876Z,1.97
2018-07-08T17:24:48.709Z,3.27
2018-07-08T17:27:17.244Z,2.83
2018-07-08T17:29:45.742Z,4.20
2018-07-08T17:32:14.639Z,3.57
2018-07-08T17:34:43.647Z,3.70
2018-07-08T17:37:12.176Z,2.40
2018-07-08T17:39:41.008Z,3.90
2018-07-08T17:42:09.510Z,3.60
2018-07-08T17:44:38.379Z,3.50
2018-07-08T17:47:07.206Z,3.63
2018-07-08T17:49:36.032Z,3.43
2018-07-08T17:52:04.871Z,5.70
2018-07-08T17:54:33.459Z,5.43
2018-07-08T17:57:01.972Z,2.40
2018-07-08T17:59:30.518Z,3.13
2018-07-08T18:01:59.419Z,4.70
2018-07-08T18:04:27.919Z,2.43
2018-07-08T18:06:56.472Z,2.23
2018-07-08T18:09:25.622Z,5.47
2018-07-08T18:11:54.147Z,3.67
2018-07-08T18:14:23.134Z,3.50
2018-07-08T18:16:51.839Z,2.77
2018-07-08T18:19:20.363Z,2.23
2018-07-08T18:21:48.843Z,2.33
2018-07-08T18:24:17.347Z,3.67
2018-07-08T18:26:45.944Z,2.63
2018-07-08T18:29:14.418Z,2.60
2018-07-08T18:31:42.893Z,2.03
2018-07-08T18:34:11.405Z,5.20
2018-07-08T18:36:39.889Z,3.73
2018-07-08T18:39:08.838Z,8.17
2018-07-08T18:41:37.377Z,3.60
2018-07-08T18:44:06.604Z,3.73
2018-07-08T18:46:35.160Z,3.13
2018-07-08T18:49:03.816Z,2.43
2018-07-08T18:51:32.428Z,4.37
2018-07-08T18:54:01.378Z,5.00
2018-07-08T18:56:29.839Z,3.23
2018-07-08T18:58:58.360Z,2.30
2018-07-08T19:01:26.834Z,3.43
2018-07-08T19:03:55.447Z,2.50
2018-07-08T19:06:24.066Z,3.00
2018-07-08T19:08:52.560Z,4.57
2018-07-08T19:11:21.125Z,5.17
2018-07-08T19:13:49.729Z,3.67
2018-07-08T19:16:18.229Z,2.93
2018-07-08T19:18:46.736Z,4.37
2018-07-08T19:21:15.199Z,3.00
2018-07-08T19:23:43.730Z,6.27
2018-07-08T19:26:12.210Z,5.03
2018-07-08T19:28:40.748Z,5.00
2018-07-08T19:31:09.192Z,6.13
2018-07-08T19:33:37.667Z,2.93
2018-07-08T19:36:06.464Z,4.10
2018-07-08T19:38:34.990Z,3.17
2018-07-08T19:41:03.474Z,5.73
2018-07-08T19:43:31.990Z,2.57
2018-07-08T19:46:00.495Z,5.07
2018-07-08T19:48:29.034Z,5.07
2018-07-08T19:50:57.547Z,4.67
2018-07-08T19:53:26.128Z,4.20
2018-07-08T19:55:54.625Z,3.67
2018-07-08T19:58:23.448Z,4.40
2018-07-08T20:00:51.993Z,3.67
2018-07-08T20:03:20.555Z,3.00
2018-07-08T20:05:49.129Z,5.77
2018-07-08T20:08:17.747Z,3.47
2018-07-08T20:10:46.287Z,3.80
2018-07-08T20:13:14.763Z,3.30
2018-07-08T20:15:43.307Z,5.63
2018-07-08T20:18:12.111Z,3.13
2018-07-08T20:20:40.684Z,3.93
2018-07-08T20:23:09.161Z,4.50
2018-07-08T20:25:37.731Z,4.43
2018-07-08T20:28:06.244Z,3.43
2018-07-08T20:30:34.805Z,5.83
2018-07-08T20:33:03.329Z,14.53
2018-07-08T20:35:32.049Z,3.37
2018-07-08T20:38:00.633Z,3.93
2018-07-08T20:40:29.255Z,2.97
2018-07-08T20:42:57.455Z,5.03
2018-07-08T20:45:25.969Z,4.33
2018-07-08T20:47:54.506Z,3.83
2018-07-08T20:50:23.024Z,3.50
2018-07-08T20:52:51.874Z,6.80
2018-07-08T20:55:20.855Z,7.30
2018-07-08T20:57:49.472Z,3.17
2018-07-08T21:00:18.054Z,6.53
2018-07-08T21:02:46.532Z,6.73
2018-07-08T21:05:15.040Z,3.20
2018-07-08T21:07:43.700Z,7.03
2018-07-08T21:10:12.192Z,4.80
2018-07-08T21:12:40.744Z,3.43
2018-07-08T21:16:34.032Z,4.97
2018-07-08T21:19:02.559Z,3.40
2018-07-08T21:21:31.064Z,3.23
2018-07-08T21:23:59.895Z,3.53
2018-07-08T21:26:28.379Z,5.83
2018-07-08T21:28:56.910Z,4.13
2018-07-08T21:31:25.816Z,6.20
2018-07-08T21:33:54.413Z,4.67
2018-07-08T21:36:22.907Z,4.07
2018-07-08T21:38:51.376Z,3.50
2018-07-08T21:41:19.908Z,5.43
2018-07-08T21:43:48.343Z,7.87
2018-07-08T21:46:16.827Z,6.13
2018-07-08T21:48:45.607Z,3.00
2018-07-08T21:51:14.132Z,5.40
2018-07-08T21:53:42.689Z,3.43
2018-07-08T21:56:11.181Z,4.80
2018-07-08T21:58:39.651Z,6.27
2018-07-08T22:01:15.218Z,6.50
2018-07-08T22:03:44.462Z,3.67
2018-07-08T22:06:13.548Z,6.10
2018-07-08T22:08:43.238Z,4.20
2018-07-08T22:11:12.166Z,5.50
2018-07-08T22:13:41.211Z,4.20
2018-07-08T22:16:09.769Z,3.13
2018-07-08T22:18:38.598Z,3.60
2018-07-08T22:21:08.221Z,4.43
2018-07-08T22:23:36.895Z,5.00
2018-07-08T22:26:05.635Z,4.57
2018-07-08T22:28:34.308Z,3.50
2018-07-08T22:31:03.240Z,4.40
2018-07-08T22:33:31.786Z,3.43
2018-07-08T22:36:00.420Z,4.50
2018-07-08T22:38:29.031Z,4.20
2018-07-08T22:40:57.561Z,5.50
2018-07-08T22:43:26.123Z,4.17
2018-07-08T22:45:54.640Z,5.17
2018-07-08T22:48:23.302Z,4.87
2018-07-08T22:50:51.815Z,3.93
2018-07-08T22:53:20.361Z,4.57
2018-07-08T22:55:48.934Z,5.23
2018-07-08T22:58:17.464Z,5.27
2018-07-08T23:00:57.195Z,5.23
2018-07-08T23:04:00.709Z,4.83
2018-07-08T23:06:29.217Z,3.70
2018-07-08T23:08:57.980Z,3.57
2018-07-08T23:11:27.139Z,3.60
2018-07-08T23:13:56.559Z,3.93
2018-07-08T23:16:26.071Z,6.53
2018-07-08T23:18:54.612Z,8.13
2018-07-08T23:21:23.158Z,4.63
2018-07-08T23:23:51.739Z,3.87
2018-07-08T23:26:20.265Z,4.50
2018-07-08T23:28:48.797Z,4.97
2018-07-08T23:31:17.324Z,4.27
2018-07-08T23:33:46.210Z,5.53
2018-07-08T23:36:15.455Z,6.50
2018-07-08T23:38:44.024Z,7.90
2018-07-08T23:41:12.824Z,5.17
2018-07-08T23:43:41.327Z,3.63
2018-07-08T23:46:09.900Z,7.10
2018-07-08T23:48:38.457Z,6.60
2018-07-08T23:51:06.992Z,5.57
2018-07-08T23:53:36.879Z,3.20
2018-07-08T23:56:05.408Z,4.87
2018-07-08T23:58:34.375Z,6.80
